Time;durP1;ratioP1;P1;durP2;ratioP2;P2;SDS_P1;SDS_P2;PMS_P1;PMS_P2;Temp;Humidity;BMP_temperature;BMP_pressure;BME280_temperature;BME280_humidity;BME280_pressure;Samples;Min_cycle;Max_cycle;Signal;HPM_P1;HPM_P2
2022/08/28 00:02:11;;;;;;;;;;;24.20;86.40;;;;;;5097197;28;19915;-54
2022/08/28 00:04:36;;;;;;;;;;;24.20;86.40;;;;;;5097156;28;19959;-55
2022/08/28 00:07:02;;;;;;;;;;;24.20;86.40;;;;;;5096868;28;19920;-53
2022/08/28 00:09:27;;;;;;;;;;;24.20;86.40;;;;;;5097103;28;20367;-48
2022/08/28 00:11:53;;;;;;;;;;;24.20;86.40;;;;;;5097002;28;19908;-55
2022/08/28 00:14:19;;;;;;;;;;;24.20;86.40;;;;;;5097018;28;20325;-53
2022/08/28 00:16:46;;;;;;;;;;;24.20;86.40;;;;;;5096529;28;20374;-56
2022/08/28 00:19:12;;;;;;;;;;;24.20;86.40;;;;;;5097281;28;19912;-51
2022/08/28 00:21:38;;;;;;;;;;;24.20;86.40;;;;;;5096907;28;19969;-55
2022/08/28 00:24:03;;;;;;;;;;;24.20;86.30;;;;;;5096443;28;19909;-53
2022/08/28 00:29:13;;;;;;;;;;;24.20;86.30;;;;;;5096785;28;20304;-51
2022/08/28 00:31:38;;;;;;;;;;;24.20;86.30;;;;;;5096747;28;19912;-49
2022/08/28 00:34:05;;;;;;;;;;;24.20;86.30;;;;;;5096911;28;19909;-52
2022/08/28 00:36:31;;;;;;;;;;;24.20;86.30;;;;;;5096589;28;20338;-54
2022/08/28 00:38:59;;;;;;;;;;;24.20;86.30;;;;;;5096318;28;19908;-52
2022/08/28 00:41:25;;;;;;;;;;;24.20;86.30;;;;;;5096569;28;19908;-51
2022/08/28 00:44:03;;;;;;;;;;;24.20;86.40;;;;;;5096428;28;19912;-52
2022/08/28 00:46:29;;;;;;;;;;;24.20;86.40;;;;;;5096415;28;19912;-53
2022/08/28 00:48:54;;;;;;;;;;;24.20;86.30;;;;;;5096173;28;20424;-54
2022/08/28 00:54:05;;;;;;;;;;;24.20;86.30;;;;;;5096325;28;19915;-52
2022/08/28 00:56:31;;;;;;;;;;;24.20;86.30;;;;;;5096242;28;20007;-55
2022/08/28 00:59:00;;;;;;;;;;;24.20;86.30;;;;;;5096046;28;19912;-54
2022/08/28 01:01:25;;;;;;;;;;;24.20;86.30;;;;;;5096205;28;19908;-55
2022/08/28 01:03:51;;;;;;;;;;;24.20;86.30;;;;;;5095826;28;19915;-55
2022/08/28 01:06:18;;;;;;;;;;;24.20;86.30;;;;;;5095978;28;19913;-51
2022/08/28 01:08:45;;;;;;;;;;;24.20;86.30;;;;;;5095980;28;20315;-56
2022/08/28 01:11:12;;;;;;;;;;;24.20;86.30;;;;;;5096063;28;20259;-52
2022/08/28 01:13:39;;;;;;;;;;;24.20;86.20;;;;;;5095928;28;20248;-55
2022/08/28 01:16:05;;;;;;;;;;;24.20;86.30;;;;;;5095777;28;20231;-54
2022/08/28 01:18:32;;;;;;;;;;;24.20;86.30;;;;;;5095508;28;20355;-54
2022/08/28 01:20:57;;;;;;;;;;;24.20;86.30;;;;;;5095732;28;20359;-55
2022/08/28 01:23:41;;;;;;;;;;;24.20;86.30;;;;;;5095245;28;19915;-54
2022/08/28 01:26:07;;;;;;;;;;;24.20;86.30;;;;;;5095492;28;19920;-53
2022/08/28 01:28:32;;;;;;;;;;;24.20;86.80;;;;;;5095549;28;20476;-52
2022/08/28 01:30:58;;;;;;;;;;;24.10;86.20;;;;;;5095113;28;19909;-55
2022/08/28 01:33:23;;;;;;;;;;;24.10;86.20;;;;;;5095141;28;19908;-55
2022/08/28 01:35:49;;;;;;;;;;;24.10;86.20;;;;;;5077289;28;19915;-52
2022/08/28 01:38:15;;;;;;;;;;;24.10;86.30;;;;;;5095076;28;19908;-54
2022/08/28 01:40:43;;;;;;;;;;;24.10;86.30;;;;;;5095886;28;19909;-54
2022/08/28 01:43:17;;;;;;;;;;;24.10;86.30;;;;;;5095742;28;20417;-54
2022/08/28 01:45:43;;;;;;;;;;;24.20;86.30;;;;;;5094875;28;20428;-54
2022/08/28 01:48:10;;;;;;;;;;;24.20;86.90;;;;;;5076840;28;19916;-54
2022/08/28 01:50:35;;;;;;;;;;;24.20;86.30;;;;;;5095154;28;20274;-54
2022/08/28 01:53:03;;;;;;;;;;;24.10;86.30;;;;;;5095153;28;19908;-56
2022/08/28 01:55:31;;;;;;;;;;;24.10;86.30;;;;;;5095185;28;19908;-53
2022/08/28 01:57:56;;;;;;;;;;;24.10;86.50;;;;;;5095002;28;19909;-52
2022/08/28 02:00:26;;;;;;;;;;;24.10;86.20;;;;;;5094971;28;19919;-54
2022/08/28 02:02:53;;;;;;;;;;;24.10;86.20;;;;;;5094893;28;19908;-54
2022/08/28 02:05:19;;;;;;;;;;;24.10;86.20;;;;;;5094815;28;19912;-54
2022/08/28 02:07:45;;;;;;;;;;;24.10;86.20;;;;;;5094502;28;19912;-55
2022/08/28 02:10:10;;;;;;;;;;;24.20;86.20;;;;;;5094341;28;19908;-53
2022/08/28 02:12:36;;;;;;;;;;;24.10;86.20;;;;;;5094774;28;19914;-53
2022/08/28 02:15:02;;;;;;;;;;;24.10;86.20;;;;;;5094572;28;20342;-54
2022/08/28 02:17:28;;;;;;;;;;;24.20;86.30;;;;;;5094232;28;19981;-50
2022/08/28 02:19:53;;;;;;;;;;;24.10;86.20;;;;;;5094401;28;20367;-53
2022/08/28 02:22:19;;;;;;;;;;;24.10;86.20;;;;;;5094648;28;19952;-54
2022/08/28 02:24:45;;;;;;;;;;;24.10;86.20;;;;;;5094268;28;19912;-54
2022/08/28 02:27:10;;;;;;;;;;;24.10;86.20;;;;;;5094265;28;19912;-52
2022/08/28 02:29:35;;;;;;;;;;;24.10;86.20;;;;;;5094580;28;19908;-52
2022/08/28 02:32:04;;;;;;;;;;;24.20;86.20;;;;;;5094133;28;19951;-52
2022/08/28 02:34:30;;;;;;;;;;;24.10;86.20;;;;;;5094435;28;19915;-55
2022/08/28 02:36:55;;;;;;;;;;;24.10;86.70;;;;;;5094222;28;19918;-55
2022/08/28 02:39:20;;;;;;;;;;;24.10;86.20;;;;;;5094168;28;19908;-55
2022/08/28 02:41:46;;;;;;;;;;;24.20;86.20;;;;;;5094043;28;20282;-50
2022/08/28 02:44:11;;;;;;;;;;;24.10;86.20;;;;;;5094075;28;19919;-55
2022/08/28 02:46:37;;;;;;;;;;;24.20;86.20;;;;;;5094289;28;19916;-53
2022/08/28 02:49:02;;;;;;;;;;;24.10;86.20;;;;;;5094311;28;19919;-54
2022/08/28 02:51:29;;;;;;;;;;;24.20;86.30;;;;;;5094389;28;20279;-55
2022/08/28 02:53:55;;;;;;;;;;;24.20;86.20;;;;;;5094230;28;19977;-52
2022/08/28 02:56:20;;;;;;;;;;;24.10;86.20;;;;;;5094271;28;19912;-53
2022/08/28 02:58:46;;;;;;;;;;;24.10;86.20;;;;;;5094154;28;19916;-55
2022/08/28 03:01:12;;;;;;;;;;;24.20;86.30;;;;;;5076095;28;20328;-53
2022/08/28 03:03:38;;;;;;;;;;;24.10;86.20;;;;;;5094137;28;19947;-51
2022/08/28 03:06:04;;;;;;;;;;;24.10;86.20;;;;;;5093979;28;19912;-55
2022/08/28 03:08:30;;;;;;;;;;;24.10;86.20;;;;;;5094126;28;19919;-54
2022/08/28 03:10:56;;;;;;;;;;;24.10;86.30;;;;;;5094032;28;20305;-52
2022/08/28 03:13:22;;;;;;;;;;;24.10;86.20;;;;;;5094070;28;19908;-50
2022/08/28 03:15:48;;;;;;;;;;;24.10;86.20;;;;;;5093666;28;20247;-54
2022/08/28 03:18:14;;;;;;;;;;;24.10;86.20;;;;;;5093763;28;19916;-51
2022/08/28 03:20:40;;;;;;;;;;;24.10;86.30;;;;;;5093948;28;19995;-53
2022/08/28 03:25:51;;;;;;;;;;;24.10;86.30;;;;;;5097791;28;19919;-51
2022/08/28 03:28:16;;;;;;;;;;;24.10;86.20;;;;;;5079808;28;19924;-53
2022/08/28 03:30:42;;;;;;;;;;;24.10;86.20;;;;;;5097921;28;20259;-53
2022/08/28 03:33:07;;;;;;;;;;;24.10;86.20;;;;;;5097585;28;19908;-55
2022/08/28 03:35:33;;;;;;;;;;;24.10;86.30;;;;;;5097808;28;20251;-54
2022/08/28 03:37:58;;;;;;;;;;;24.10;86.30;;;;;;5098075;28;19908;-55
2022/08/28 03:40:24;;;;;;;;;;;24.10;86.30;;;;;;5097436;28;19908;-55
2022/08/28 03:42:50;;;;;;;;;;;24.10;86.30;;;;;;5097966;28;19908;-54
2022/08/28 03:45:15;;;;;;;;;;;24.10;86.30;;;;;;5097790;28;19959;-56
2022/08/28 03:47:41;;;;;;;;;;;24.10;86.30;;;;;;5097913;28;19916;-53
2022/08/28 03:50:10;;;;;;;;;;;24.10;86.30;;;;;;5097566;28;19908;-55
2022/08/28 03:52:36;;;;;;;;;;;24.10;86.30;;;;;;5097274;28;20394;-53
2022/08/28 03:55:01;;;;;;;;;;;24.10;86.30;;;;;;5097680;28;19912;-55
2022/08/28 03:57:27;;;;;;;;;;;24.10;86.40;;;;;;5097295;28;19908;-55
2022/08/28 03:59:53;;;;;;;;;;;24.10;86.30;;;;;;5097605;28;20354;-54
2022/08/28 04:02:19;;;;;;;;;;;24.10;86.30;;;;;;5096992;28;20000;-53
2022/08/28 04:04:45;;;;;;;;;;;24.10;86.30;;;;;;5096728;28;20335;-52
2022/08/28 04:07:11;;;;;;;;;;;24.10;86.30;;;;;;5099869;28;19955;-52
2022/08/28 04:09:37;;;;;;;;;;;24.10;86.30;;;;;;5096849;28;19908;-52
2022/08/28 04:12:02;;;;;;;;;;;24.10;86.30;;;;;;5096838;28;19912;-51
2022/08/28 04:14:28;;;;;;;;;;;24.10;86.40;;;;;;5096897;28;19908;-52
2022/08/28 04:16:53;;;;;;;;;;;24.10;86.30;;;;;;5096982;28;19963;-55
2022/08/28 04:19:20;;;;;;;;;;;24.10;86.40;;;;;;5098836;28;19981;-53
2022/08/28 04:21:46;;;;;;;;;;;24.10;86.30;;;;;;5098590;28;19969;-55
2022/08/28 04:24:12;;;;;;;;;;;24.10;86.30;;;;;;5095560;28;20335;-54
2022/08/28 04:26:38;;;;;;;;;;;24.10;86.30;;;;;;5096544;28;19966;-54
2022/08/28 04:29:04;;;;;;;;;;;24.10;86.40;;;;;;5096768;28;19916;-53
2022/08/28 04:31:29;;;;;;;;;;;24.10;86.40;;;;;;5096724;28;19915;-53
2022/08/28 04:33:55;;;;;;;;;;;24.10;86.40;;;;;;5096134;28;19908;-55
2022/08/28 04:36:20;;;;;;;;;;;24.10;86.40;;;;;;5096347;28;19912;-54
2022/08/28 04:38:46;;;;;;;;;;;24.10;86.40;;;;;;5098737;28;19912;-54
2022/08/28 04:41:14;;;;;;;;;;;24.10;86.40;;;;;;5096923;28;19999;-54
2022/08/28 04:43:39;;;;;;;;;;;24.10;86.40;;;;;;5096126;28;20420;-54
2022/08/28 04:46:06;;;;;;;;;;;24.10;86.40;;;;;;5096327;28;19916;-51
2022/08/28 04:48:35;;;;;;;;;;;24.10;86.40;;;;;;5078297;28;19919;-53
2022/08/28 04:51:03;;;;;;;;;;;24.10;86.40;;;;;;5099661;28;19919;-54
2022/08/28 04:53:28;;;;;;;;;;;24.10;86.30;;;;;;5115929;28;19908;-53
2022/08/28 04:55:57;;;;;;;;;;;24.10;86.30;;;;;;5086095;28;19903;-54
2022/08/28 04:58:23;;;;;;;;;;;24.10;86.40;;;;;;5116425;28;20517;-51
2022/08/28 05:00:50;;;;;;;;;;;24.10;86.40;;;;;;5105591;28;19904;-56
2022/08/28 05:03:16;;;;;;;;;;;24.10;86.40;;;;;;5096259;28;19957;-57
2022/08/28 05:05:43;;;;;;;;;;;24.10;87.60;;;;;;5096726;28;19935;-57
2022/08/28 05:08:09;;;;;;;;;;;24.10;88.10;;;;;;5094611;28;19920;-52
2022/08/28 05:10:34;;;;;;;;;;;24.10;88.00;;;;;;5078647;28;19916;-55
2022/08/28 05:13:00;;;;;;;;;;;24.10;87.70;;;;;;5094650;28;19935;-54
2022/08/28 05:15:25;;;;;;;;;;;24.10;87.60;;;;;;5093987;28;20358;-54
2022/08/28 05:17:51;;;;;;;;;;;24.10;87.50;;;;;;5094169;28;19908;-54
2022/08/28 05:20:16;;;;;;;;;;;24.10;87.40;;;;;;5094486;28;19909;-54
2022/08/28 05:22:42;;;;;;;;;;;24.10;87.40;;;;;;5089850;28;19920;-56
2022/08/28 05:25:07;;;;;;;;;;;24.10;87.40;;;;;;5093907;28;19924;-55
2022/08/28 05:27:34;;;;;;;;;;;24.10;87.30;;;;;;5094100;28;20337;-53
2022/08/28 05:29:59;;;;;;;;;;;24.10;87.30;;;;;;5095204;28;19951;-52
2022/08/28 05:32:25;;;;;;;;;;;24.10;87.30;;;;;;5074000;28;19944;-55
2022/08/28 05:34:50;;;;;;;;;;;24.10;87.20;;;;;;5076300;28;20428;-56
2022/08/28 05:37:16;;;;;;;;;;;24.10;87.10;;;;;;5096005;28;19958;-56
2022/08/28 05:39:41;;;;;;;;;;;24.10;87.10;;;;;;5090441;28;20026;-54
2022/08/28 05:42:06;;;;;;;;;;;24.10;87.10;;;;;;5075501;28;19911;-52
2022/08/28 05:44:32;;;;;;;;;;;24.10;87.10;;;;;;5093095;28;20374;-55
2022/08/28 05:46:57;;;;;;;;;;;24.10;87.10;;;;;;5096470;28;19916;-52
2022/08/28 05:49:23;;;;;;;;;;;24.10;87.10;;;;;;5093834;28;19955;-54
2022/08/28 05:51:49;;;;;;;;;;;24.10;87.10;;;;;;5093060;28;20348;-55
2022/08/28 05:54:14;;;;;;;;;;;24.10;87.10;;;;;;5093530;28;20196;-55
2022/08/28 05:56:40;;;;;;;;;;;24.10;87.10;;;;;;5093825;28;19908;-52
2022/08/28 05:59:06;;;;;;;;;;;24.10;87.10;;;;;;5094639;28;20003;-53
2022/08/28 06:01:34;;;;;;;;;;;24.10;87.00;;;;;;5095058;28;19944;-56
2022/08/28 06:04:22;;;;;;;;;;;24.10;87.10;;;;;;5090257;28;19927;-52
2022/08/28 06:06:48;;;;;;;;;;;24.10;87.00;;;;;;5097376;28;20278;-53
2022/08/28 06:09:15;;;;;;;;;;;24.10;87.00;;;;;;5085594;28;19912;-52
2022/08/28 06:11:41;;;;;;;;;;;24.00;86.90;;;;;;5095133;28;19961;-53
2022/08/28 06:14:08;;;;;;;;;;;24.10;87.00;;;;;;5093444;28;19908;-56
2022/08/28 06:16:35;;;;;;;;;;;24.00;86.90;;;;;;5097450;28;20382;-54
2022/08/28 06:19:00;;;;;;;;;;;24.00;87.00;;;;;;5094139;28;19912;-56
2022/08/28 06:21:26;;;;;;;;;;;24.00;86.90;;;;;;5094239;28;19961;-49
2022/08/28 06:23:51;;;;;;;;;;;24.00;86.90;;;;;;5094173;28;20367;-54
2022/08/28 06:26:16;;;;;;;;;;;24.00;86.90;;;;;;5094215;28;20373;-52
2022/08/28 06:28:42;;;;;;;;;;;24.10;87.00;;;;;;5089980;28;20014;-53
2022/08/28 06:31:07;;;;;;;;;;;24.00;86.90;;;;;;5095968;28;19908;-55
2022/08/28 06:33:33;;;;;;;;;;;24.00;86.90;;;;;;5093709;28;19908;-54
2022/08/28 06:36:01;;;;;;;;;;;24.00;86.90;;;;;;5074438;28;20365;-52
2022/08/28 06:38:27;;;;;;;;;;;24.00;86.90;;;;;;5087656;28;19903;-55
2022/08/28 06:40:53;;;;;;;;;;;24.00;86.90;;;;;;5092618;28;19920;-56
2022/08/28 06:43:20;;;;;;;;;;;24.00;86.90;;;;;;5089560;28;19912;-52
2022/08/28 06:45:47;;;;;;;;;;;24.10;87.10;;;;;;5093596;28;19912;-50
2022/08/28 06:48:15;;;;;;;;;;;24.00;86.90;;;;;;5075922;28;19919;-50
2022/08/28 06:50:42;;;;;;;;;;;24.00;86.90;;;;;;5094173;28;19911;-56
2022/08/28 06:53:08;;;;;;;;;;;24.00;87.10;;;;;;5094300;28;19949;-54
2022/08/28 06:55:34;;;;;;;;;;;24.00;87.10;;;;;;5094162;28;19911;-54
2022/08/28 06:57:59;;;;;;;;;;;24.00;87.10;;;;;;5093815;28;19908;-53
2022/08/28 07:00:25;;;;;;;;;;;24.00;87.00;;;;;;5094210;28;19940;-56
2022/08/28 07:02:50;;;;;;;;;;;24.00;87.10;;;;;;5094137;28;19905;-55
2022/08/28 07:05:16;;;;;;;;;;;24.00;87.10;;;;;;5094084;28;19908;-53
2022/08/28 07:07:41;;;;;;;;;;;24.00;87.00;;;;;;5073540;28;20374;-51
2022/08/28 07:10:07;;;;;;;;;;;24.00;87.00;;;;;;5108271;28;19947;-50
2022/08/28 07:12:33;;;;;;;;;;;24.00;87.10;;;;;;5092129;28;19968;-53
2022/08/28 07:14:58;;;;;;;;;;;23.90;87.00;;;;;;5093942;28;19904;-56
2022/08/28 07:17:24;;;;;;;;;;;24.00;87.10;;;;;;5093899;28;19924;-56
2022/08/28 07:19:50;;;;;;;;;;;24.00;87.00;;;;;;5091702;28;19920;-51
2022/08/28 07:22:15;;;;;;;;;;;24.00;87.10;;;;;;5088018;28;20396;-56
2022/08/28 07:24:41;;;;;;;;;;;24.00;87.10;;;;;;5093665;28;19912;-55
2022/08/28 07:27:07;;;;;;;;;;;24.00;87.10;;;;;;5070830;28;19931;-51
2022/08/28 07:29:34;;;;;;;;;;;24.00;87.10;;;;;;5105761;28;19911;-55
2022/08/28 07:31:59;;;;;;;;;;;24.00;87.10;;;;;;5113956;28;19927;-51
2022/08/28 07:34:25;;;;;;;;;;;24.00;87.10;;;;;;5094849;28;19908;-56
2022/08/28 07:36:51;;;;;;;;;;;24.00;87.10;;;;;;5093211;28;19908;-52
2022/08/28 07:39:17;;;;;;;;;;;24.00;87.60;;;;;;5093437;28;20244;-53
2022/08/28 07:41:42;;;;;;;;;;;24.00;87.10;;;;;;5093631;28;19961;-53
2022/08/28 07:46:57;;;;;;;;;;;24.00;87.20;;;;;;5073048;28;19923;-54
2022/08/28 07:49:24;;;;;;;;;;;23.90;87.10;;;;;;5093683;28;19923;-56
2022/08/28 07:51:49;;;;;;;;;;;24.00;87.30;;;;;;5105107;28;19915;-56
2022/08/28 07:54:15;;;;;;;;;;;24.00;87.30;;;;;;5073394;28;20318;-56
2022/08/28 07:56:41;;;;;;;;;;;24.00;87.10;;;;;;5073424;28;19912;-54
2022/08/28 07:59:07;;;;;;;;;;;24.00;87.40;;;;;;5100501;28;20053;-56
2022/08/28 08:01:40;;;;;;;;;;;24.00;87.10;;;;;;5083244;28;19916;-55
2022/08/28 08:04:07;;;;;;;;;;;24.00;87.20;;;;;;5092976;28;20352;-56
2022/08/28 08:06:33;;;;;;;;;;;24.00;87.30;;;;;;5102984;28;19927;-59
2022/08/28 08:08:58;;;;;;;;;;;24.00;87.30;;;;;;5095207;28;19911;-57
2022/08/28 08:11:25;;;;;;;;;;;24.10;87.50;;;;;;5111360;28;19931;-59
2022/08/28 08:13:51;;;;;;;;;;;24.00;87.40;;;;;;5098448;28;19992;-58
2022/08/28 08:16:18;;;;;;;;;;;24.00;87.50;;;;;;5115237;28;19943;-58
2022/08/28 08:18:44;;;;;;;;;;;24.00;87.50;;;;;;5115131;28;19934;-58
2022/08/28 08:21:11;;;;;;;;;;;24.10;87.50;;;;;;5117163;28;20315;-58
2022/08/28 08:23:37;;;;;;;;;;;24.00;87.30;;;;;;5112461;28;19908;-58
2022/08/28 08:26:05;;;;;;;;;;;24.00;87.40;;;;;;5116684;28;19969;-59
2022/08/28 08:28:32;;;;;;;;;;;24.00;87.90;;;;;;5114552;28;19912;-58
2022/08/28 08:31:03;;;;;;;;;;;24.00;87.30;;;;;;5109590;28;19916;-58
2022/08/28 08:33:29;;;;;;;;;;;24.00;87.30;;;;;;5078057;28;19908;-59
2022/08/28 08:35:54;;;;;;;;;;;24.00;87.40;;;;;;5083532;28;19935;-58
2022/08/28 08:38:20;;;;;;;;;;;24.00;87.20;;;;;;5115682;28;19915;-58
2022/08/28 08:40:46;;;;;;;;;;;24.00;87.40;;;;;;5114964;28;19955;-59
2022/08/28 08:43:13;;;;;;;;;;;24.00;87.40;;;;;;5104704;28;20267;-58
2022/08/28 08:45:40;;;;;;;;;;;24.00;87.50;;;;;;5116605;28;20251;-59
2022/08/28 08:48:10;;;;;;;;;;;24.00;87.30;;;;;;5107778;28;19950;-59
2022/08/28 08:50:35;;;;;;;;;;;24.00;87.50;;;;;;5116472;28;20010;-59
2022/08/28 08:53:07;;;;;;;;;;;24.00;87.80;;;;;;5095912;28;19973;-58
2022/08/28 08:55:34;;;;;;;;;;;24.00;88.60;;;;;;5094844;28;19916;-57
2022/08/28 08:58:02;;;;;;;;;;;24.00;89.00;;;;;;5108624;28;19908;-59
2022/08/28 09:00:30;;;;;;;;;;;24.00;88.90;;;;;;5086566;28;19916;-55
2022/08/28 09:03:08;;;;;;;;;;;24.10;89.10;;;;;;5107130;28;19904;-58
2022/08/28 09:05:39;;;;;;;;;;;24.10;89.20;;;;;;5104256;28;19919;-57
2022/08/28 09:08:05;;;;;;;;;;;24.10;89.10;;;;;;5075800;28;19916;-55
2022/08/28 09:10:36;;;;;;;;;;;24.00;88.90;;;;;;5075394;28;19958;-56
2022/08/28 09:13:07;;;;;;;;;;;24.00;88.70;;;;;;5075140;28;19905;-58
2022/08/28 09:15:34;;;;;;;;;;;24.10;88.70;;;;;;5057402;28;20382;-57
2022/08/28 09:18:05;;;;;;;;;;;24.00;88.40;;;;;;5106284;28;19908;-57
2022/08/28 09:20:31;;;;;;;;;;;24.00;88.70;;;;;;5096273;28;19999;-51
2022/08/28 09:22:56;;;;;;;;;;;24.00;88.40;;;;;;5115773;28;19942;-59
2022/08/28 09:25:40;;;;;;;;;;;24.00;88.40;;;;;;5113786;28;19916;-60
2022/08/28 09:28:07;;;;;;;;;;;24.00;88.40;;;;;;5111844;28;19919;-60
2022/08/28 09:30:32;;;;;;;;;;;24.00;88.60;;;;;;5112936;28;19912;-60
2022/08/28 09:32:59;;;;;;;;;;;24.00;88.60;;;;;;5114727;28;19972;-59
2022/08/28 09:35:27;;;;;;;;;;;24.00;88.60;;;;;;5113127;28;19923;-60
2022/08/28 09:37:53;;;;;;;;;;;24.00;88.60;;;;;;5115758;28;19912;-59
2022/08/28 09:40:18;;;;;;;;;;;24.00;88.60;;;;;;5113090;28;20351;-59
2022/08/28 09:46:05;;;;;;;;;;;24.00;88.70;;;;;;5107138;28;19960;-58
2022/08/28 09:48:42;;;;;;;;;;;24.00;88.70;;;;;;5096842;28;19987;-59
2022/08/28 09:51:13;;;;;;;;;;;24.00;88.50;;;;;;5115659;28;19908;-59
2022/08/28 09:53:50;;;;;;;;;;;24.00;88.60;;;;;;5108403;28;19911;-59
2022/08/28 09:56:29;;;;;;;;;;;24.00;88.60;;;;;;5109863;28;20010;-59
2022/08/28 09:58:58;;;;;;;;;;;24.00;88.60;;;;;;5108545;28;19912;-59
2022/08/28 10:01:41;;;;;;;;;;;24.00;88.50;;;;;;5115634;28;19918;-59
2022/08/28 10:04:13;;;;;;;;;;;24.00;89.10;;;;;;5108190;28;19981;-60
2022/08/28 10:06:39;;;;;;;;;;;24.00;88.50;;;;;;5103935;28;19950;-59
2022/08/28 10:09:08;;;;;;;;;;;24.00;88.60;;;;;;5109444;28;19916;-59
2022/08/28 10:11:36;;;;;;;;;;;24.00;88.60;;;;;;5108544;28;19918;-60
2022/08/28 10:14:08;;;;;;;;;;;24.00;88.60;;;;;;5112463;28;19912;-60
2022/08/28 10:16:33;;;;;;;;;;;24.00;88.50;;;;;;5110017;28;19920;-60
2022/08/28 10:19:08;;;;;;;;;;;24.00;88.50;;;;;;5096482;28;19915;-60
2022/08/28 10:21:38;;;;;;;;;;;24.00;88.50;;;;;;5105655;28;20399;-60
2022/08/28 10:24:07;;;;;;;;;;;24.00;88.60;;;;;;5109609;28;19954;-60
2022/08/28 10:26:33;;;;;;;;;;;24.00;88.50;;;;;;5104023;28;19916;-60
2022/08/28 10:28:59;;;;;;;;;;;24.00;88.50;;;;;;5113708;28;20384;-60
2022/08/28 10:31:47;;;;;;;;;;;24.00;88.50;;;;;;5092964;28;19908;-56
2022/08/28 10:34:16;;;;;;;;;;;24.00;88.40;;;;;;5060118;28;19917;-59
2022/08/28 10:36:43;;;;;;;;;;;24.00;88.30;;;;;;5093070;28;20476;-59
2022/08/28 10:39:23;;;;;;;;;;;24.00;88.90;;;;;;5079817;28;19920;-60
2022/08/28 10:41:57;;;;;;;;;;;24.00;88.40;;;;;;5073964;28;20370;-59
2022/08/28 10:44:31;;;;;;;;;;;24.00;88.40;;;;;;5089880;28;19912;-60
2022/08/28 10:46:57;;;;;;;;;;;24.00;88.50;;;;;;5073715;28;19912;-60
2022/08/28 10:49:27;;;;;;;;;;;24.00;88.50;;;;;;5071544;28;20477;-60
2022/08/28 10:51:55;;;;;;;;;;;24.00;88.50;;;;;;5071045;28;19915;-60
2022/08/28 10:54:31;;;;;;;;;;;24.00;90.00;;;;;;5114460;28;20266;-59
2022/08/28 10:57:17;;;;;;;;;;;24.00;89.50;;;;;;5107097;28;19912;-59
2022/08/28 10:59:45;;;;;;;;;;;24.00;90.10;;;;;;5088600;28;19947;-60
2022/08/28 11:02:11;;;;;;;;;;;24.00;90.20;;;;;;5073805;28;19909;-55
2022/08/28 11:04:37;;;;;;;;;;;24.00;90.10;;;;;;5087299;28;19982;-59
2022/08/28 11:07:05;;;;;;;;;;;24.00;90.30;;;;;;5093646;28;19916;-57
2022/08/28 11:09:40;;;;;;;;;;;24.00;90.20;;;;;;5093655;28;19908;-57
2022/08/28 11:12:14;;;;;;;;;;;24.00;90.60;;;;;;5093899;28;19908;-58
2022/08/28 11:14:44;;;;;;;;;;;24.00;90.90;;;;;;5093630;28;19908;-55
2022/08/28 11:17:29;;;;;;;;;;;24.00;90.80;;;;;;5082280;28;19920;-59
2022/08/28 11:20:14;;;;;;;;;;;24.10;90.90;;;;;;5093514;28;19908;-59
2022/08/28 11:22:45;;;;;;;;;;;24.00;90.60;;;;;;5091405;28;20359;-59
2022/08/28 11:25:16;;;;;;;;;;;24.00;90.50;;;;;;5082798;28;19978;-59
2022/08/28 11:28:01;;;;;;;;;;;24.00;90.50;;;;;;5074705;28;19912;-55
2022/08/28 11:30:30;;;;;;;;;;;24.00;90.40;;;;;;5093202;28;19912;-53
2022/08/28 11:32:57;;;;;;;;;;;24.00;90.40;;;;;;5092202;28;19970;-53
2022/08/28 11:35:28;;;;;;;;;;;24.10;90.40;;;;;;5095051;28;20054;-50
2022/08/28 11:37:55;;;;;;;;;;;24.10;90.30;;;;;;5089344;28;19912;-55
2022/08/28 11:40:30;;;;;;;;;;;24.00;90.10;;;;;;5113582;28;19908;-54
2022/08/28 11:43:23;;;;;;;;;;;24.00;90.20;;;;;;5113893;28;19915;-53
2022/08/28 11:45:54;;;;;;;;;;;24.10;90.10;;;;;;5112898;28;19911;-52
2022/08/28 11:48:35;;;;;;;;;;;24.10;90.10;;;;;;5117646;28;19916;-55
2022/08/28 11:51:03;;;;;;;;;;;24.00;90.00;;;;;;5117568;28;20002;-54
2022/08/28 11:53:47;;;;;;;;;;;24.00;90.00;;;;;;5117423;28;20396;-51
2022/08/28 11:56:33;;;;;;;;;;;24.10;90.00;;;;;;5117505;28;20285;-55
2022/08/28 11:58:58;;;;;;;;;;;24.10;89.90;;;;;;5116500;28;20258;-52
2022/08/28 12:01:31;;;;;;;;;;;24.10;89.80;;;;;;5117079;28;19908;-54
2022/08/28 12:03:58;;;;;;;;;;;24.10;89.60;;;;;;5116795;28;20369;-53
2022/08/28 12:06:43;;;;;;;;;;;24.00;89.50;;;;;;5116673;28;19911;-54
2022/08/28 12:09:09;;;;;;;;;;;24.10;89.50;;;;;;5117105;28;19911;-55
2022/08/28 12:11:37;;;;;;;;;;;24.00;89.40;;;;;;5117300;28;19907;-50
2022/08/28 12:14:03;;;;;;;;;;;24.00;89.40;;;;;;5117234;28;19964;-55
2022/08/28 12:16:29;;;;;;;;;;;24.00;89.30;;;;;;5098680;28;19978;-52
2022/08/28 12:18:57;;;;;;;;;;;24.00;89.20;;;;;;5099008;28;19915;-53
2022/08/28 12:21:24;;;;;;;;;;;24.10;89.20;;;;;;5116910;28;19935;-56
2022/08/28 12:23:55;;;;;;;;;;;24.10;89.20;;;;;;5116774;28;20044;-52
2022/08/28 12:26:28;;;;;;;;;;;24.10;89.00;;;;;;5116184;28;20385;-52
2022/08/28 12:28:54;;;;;;;;;;;24.10;89.10;;;;;;5116605;28;20382;-52
2022/08/28 12:32:10;;;;;;;;;;;24.10;88.90;;;;;;5116801;28;19908;-54
2022/08/28 12:34:37;;;;;;;;;;;24.10;88.80;;;;;;5116430;28;19915;-54
2022/08/28 12:37:04;;;;;;;;;;;24.10;88.80;;;;;;5077669;28;19918;-56
2022/08/28 12:39:31;;;;;;;;;;;24.10;88.80;;;;;;5116468;28;19915;-55
2022/08/28 12:41:57;;;;;;;;;;;24.10;88.70;;;;;;5116661;28;19915;-54
2022/08/28 12:44:24;;;;;;;;;;;24.10;88.70;;;;;;5098352;28;19955;-53
2022/08/28 12:46:50;;;;;;;;;;;24.10;88.60;;;;;;5116599;28;19951;-53
2022/08/28 12:49:45;;;;;;;;;;;24.10;88.70;;;;;;5116509;28;20439;-55
2022/08/28 12:52:16;;;;;;;;;;;24.10;88.50;;;;;;5083965;28;20331;-55
2022/08/28 12:54:42;;;;;;;;;;;24.10;88.50;;;;;;5097454;28;20378;-53
2022/08/28 12:57:12;;;;;;;;;;;24.10;88.40;;;;;;5098179;28;20006;-54
2022/08/28 12:59:42;;;;;;;;;;;24.10;88.30;;;;;;5116055;28;19915;-54
2022/08/28 13:02:10;;;;;;;;;;;24.10;88.40;;;;;;5097871;28;19915;-53
2022/08/28 13:04:37;;;;;;;;;;;24.10;88.30;;;;;;5116133;28;20270;-56
2022/08/28 13:07:09;;;;;;;;;;;24.10;88.30;;;;;;5115742;28;19923;-55
2022/08/28 13:09:35;;;;;;;;;;;24.10;88.30;;;;;;5116012;28;19908;-55
2022/08/28 13:12:01;;;;;;;;;;;24.10;88.30;;;;;;5116070;28;19908;-53
2022/08/28 13:14:41;;;;;;;;;;;24.10;88.30;;;;;;5115976;28;20011;-52
2022/08/28 13:17:07;;;;;;;;;;;24.10;88.20;;;;;;5097615;28;19949;-53
2022/08/28 13:19:33;;;;;;;;;;;24.10;88.20;;;;;;5116223;28;19950;-56
2022/08/28 13:22:19;;;;;;;;;;;24.10;88.10;;;;;;5097664;28;19961;-54
2022/08/28 13:24:45;;;;;;;;;;;24.10;88.10;;;;;;5113956;28;20316;-55
2022/08/28 13:27:11;;;;;;;;;;;24.10;88.10;;;;;;5097623;28;19916;-56
2022/08/28 13:29:39;;;;;;;;;;;24.10;88.10;;;;;;5115777;28;19916;-54
2022/08/28 13:32:07;;;;;;;;;;;24.10;88.10;;;;;;5115556;28;19915;-55
2022/08/28 13:34:34;;;;;;;;;;;24.10;88.10;;;;;;5115505;28;19919;-55
2022/08/28 13:37:01;;;;;;;;;;;24.10;88.00;;;;;;5115725;28;19911;-53
2022/08/28 13:39:28;;;;;;;;;;;24.10;88.00;;;;;;5115540;28;19908;-53
2022/08/28 13:41:55;;;;;;;;;;;24.10;88.00;;;;;;5097466;28;19907;-54
2022/08/28 13:44:31;;;;;;;;;;;24.10;88.00;;;;;;5115761;28;20265;-56
2022/08/28 13:46:58;;;;;;;;;;;24.10;87.90;;;;;;5115210;28;20282;-53
2022/08/28 13:49:26;;;;;;;;;;;24.10;87.90;;;;;;5096940;28;19923;-55
2022/08/28 13:51:52;;;;;;;;;;;24.10;87.90;;;;;;5115829;28;19912;-55
2022/08/28 13:54:17;;;;;;;;;;;24.10;87.90;;;;;;5115142;28;20334;-55
2022/08/28 13:56:43;;;;;;;;;;;24.10;87.90;;;;;;5115330;28;19962;-55
2022/08/28 13:59:08;;;;;;;;;;;24.10;87.90;;;;;;5097008;28;19912;-54
2022/08/28 14:04:18;;;;;;;;;;;24.10;87.80;;;;;;5114935;28;20006;-55
2022/08/28 14:06:43;;;;;;;;;;;24.10;87.90;;;;;;5114276;28;20445;-55
2022/08/28 14:09:13;;;;;;;;;;;24.10;87.80;;;;;;5115059;28;19980;-56
2022/08/28 14:11:43;;;;;;;;;;;24.20;87.80;;;;;;5115006;28;19916;-55
2022/08/28 14:14:08;;;;;;;;;;;24.10;87.80;;;;;;5096742;28;19915;-54
2022/08/28 14:16:34;;;;;;;;;;;24.20;87.80;;;;;;5114842;28;19920;-54
2022/08/28 14:19:03;;;;;;;;;;;24.10;87.80;;;;;;5114887;28;19918;-50
2022/08/28 14:21:30;;;;;;;;;;;24.10;87.70;;;;;;5115012;28;19967;-55
2022/08/28 14:23:55;;;;;;;;;;;24.10;87.70;;;;;;5114748;28;19911;-55
2022/08/28 14:26:20;;;;;;;;;;;24.10;87.70;;;;;;5096368;28;19919;-56
2022/08/28 14:28:46;;;;;;;;;;;24.20;87.80;;;;;;5114489;28;20335;-54
2022/08/28 14:31:11;;;;;;;;;;;24.20;87.70;;;;;;5114101;28;19907;-53
2022/08/28 14:33:37;;;;;;;;;;;24.10;87.70;;;;;;5114461;28;19914;-51
2022/08/28 14:36:03;;;;;;;;;;;24.10;87.70;;;;;;5114171;28;19912;-52
2022/08/28 14:38:29;;;;;;;;;;;24.10;87.70;;;;;;5114887;28;19961;-54